createdAt,value
2018-07-28T00:01:02.285Z,19.00
2018-07-28T00:03:34.405Z,18.80
2018-07-28T00:06:04.055Z,19.00
2018-07-28T00:08:32.434Z,20.00
2018-07-28T00:11:14.714Z,21.60
2018-07-28T00:13:42.640Z,19.60
2018-07-28T00:16:12.430Z,22.20
2018-07-28T00:18:43.785Z,19.80
2018-07-28T00:21:13.313Z,19.40
2018-07-28T00:23:42.506Z,18.20
2018-07-28T00:26:16.298Z,18.40
2018-07-28T00:28:44.297Z,17.00
2018-07-28T00:31:14.206Z,22.40
2018-07-28T00:33:46.640Z,15.80
2018-07-28T00:36:16.992Z,18.60
2018-07-28T00:38:50.238Z,17.80
2018-07-28T00:41:17.936Z,21.40
2018-07-28T00:43:48.239Z,20.80
2018-07-28T00:46:16.479Z,18.60
2018-07-28T00:48:45.609Z,17.80
2018-07-28T00:54:45.436Z,16.20
2018-07-28T00:57:13.528Z,16.20
2018-07-28T00:59:41.232Z,13.60
2018-07-28T01:02:10.252Z,19.20
2018-07-28T01:04:39.665Z,16.40
2018-07-28T01:07:17.685Z,16.20
2018-07-28T01:09:46.773Z,13.00
2018-07-28T01:12:14.469Z,18.80
2018-07-28T01:14:42.546Z,16.60
2018-07-28T01:17:10.212Z,16.20
2018-07-28T01:19:37.899Z,13.00
2018-07-28T01:22:05.997Z,12.80
2018-07-28T01:24:33.677Z,15.80
2018-07-28T01:27:01.445Z,12.80
2018-07-28T01:29:29.441Z,17.20
2018-07-28T01:31:57.162Z,16.20
2018-07-28T01:34:24.861Z,17.80
2018-07-28T01:36:52.569Z,17.00
2018-07-28T01:39:20.596Z,13.00
2018-07-28T01:41:48.295Z,15.60
2018-07-28T01:44:15.977Z,14.40
2018-07-28T01:46:43.682Z,17.80
2018-07-28T01:49:11.639Z,15.40
2018-07-28T01:51:39.338Z,12.80
2018-07-28T01:54:07.021Z,16.80
2018-07-28T01:56:34.684Z,18.20
2018-07-28T01:59:02.388Z,18.20
2018-07-28T02:01:30.388Z,18.20
2018-07-28T02:03:58.662Z,18.80
2018-07-28T02:06:26.629Z,15.40
2018-07-28T02:08:54.352Z,17.80
2018-07-28T02:11:22.110Z,17.00
2018-07-28T02:13:50.075Z,16.40
2018-07-28T02:16:17.751Z,17.00
2018-07-28T02:18:45.558Z,15.80
2018-07-28T02:21:13.523Z,20.20
2018-07-28T02:23:41.204Z,17.20
2018-07-28T02:26:09.443Z,18.80
2018-07-28T02:28:37.987Z,16.80
2018-07-28T02:31:05.642Z,18.00
2018-07-28T02:33:33.309Z,13.40
2018-07-28T02:36:01.014Z,17.00
2018-07-28T02:38:29.130Z,16.80
2018-07-28T02:40:56.782Z,15.80
2018-07-28T02:43:24.463Z,14.80
2018-07-28T02:45:53.698Z,16.40
2018-07-28T02:48:21.661Z,15.20
2018-07-28T02:50:49.333Z,19.20
2018-07-28T02:53:16.968Z,16.20
2018-07-28T02:55:45.078Z,16.20
2018-07-28T02:58:12.718Z,19.00
2018-07-28T03:00:40.405Z,18.40
2018-07-28T03:03:08.090Z,16.40
2018-07-28T03:05:36.046Z,18.40
2018-07-28T03:08:03.760Z,15.60
2018-07-28T03:10:31.417Z,17.20
2018-07-28T03:12:59.119Z,15.20
2018-07-28T03:15:30.131Z,19.20
2018-07-28T03:17:57.797Z,16.60
2018-07-28T03:20:25.460Z,17.20
2018-07-28T03:22:53.655Z,18.20
2018-07-28T03:25:21.879Z,16.40
2018-07-28T03:27:49.791Z,18.00
2018-07-28T03:30:17.979Z,18.00
2018-07-28T03:32:45.634Z,18.00
2018-07-28T03:35:13.499Z,19.80
2018-07-28T03:37:41.212Z,18.20
2018-07-28T03:40:09.711Z,19.40
2018-07-28T03:42:37.404Z,18.80
2018-07-28T03:45:05.172Z,18.00
2018-07-28T03:47:33.340Z,18.80
2018-07-28T03:50:01.319Z,18.00
2018-07-28T03:52:29.030Z,18.80
2018-07-28T03:54:56.837Z,18.20
2018-07-28T03:57:26.452Z,17.60
2018-07-28T03:59:54.143Z,18.60
2018-07-28T04:02:22.380Z,18.80
2018-07-28T04:04:50.025Z,18.40
2018-07-28T04:07:18.008Z,21.80
2018-07-28T04:09:45.704Z,13.00
2018-07-28T04:12:13.411Z,20.80
2018-07-28T04:14:41.087Z,21.40
2018-07-28T04:17:09.231Z,19.00
2018-07-28T04:19:36.900Z,20.60
2018-07-28T04:22:04.571Z,16.80
2018-07-28T04:24:32.220Z,11.40
2018-07-28T04:27:01.138Z,21.40
2018-07-28T04:29:28.832Z,19.20
2018-07-28T04:31:57.923Z,15.00
2018-07-28T04:34:25.596Z,18.80
2018-07-28T04:36:54.337Z,21.00
2018-07-28T04:39:22.015Z,18.20
2018-07-28T04:41:49.670Z,18.60
2018-07-28T04:44:17.594Z,16.20
2018-07-28T04:46:45.292Z,15.00
2018-07-28T04:49:12.961Z,23.00
2018-07-28T04:51:40.641Z,16.00
2018-07-28T04:54:08.576Z,19.40
2018-07-28T04:56:36.256Z,19.40
2018-07-28T04:59:03.943Z,19.00
2018-07-28T05:01:31.875Z,19.00
2018-07-28T05:03:59.697Z,17.40
2018-07-28T05:06:27.356Z,21.20
2018-07-28T05:08:55.443Z,16.60
2018-07-28T05:11:23.127Z,17.00
2018-07-28T05:13:50.800Z,20.00
2018-07-28T05:16:18.537Z,20.00
2018-07-28T05:18:48.971Z,19.80
2018-07-28T05:21:16.675Z,17.40
2018-07-28T05:23:44.410Z,17.80
2018-07-28T05:26:12.497Z,13.00
2018-07-28T05:28:40.219Z,21.40
2018-07-28T05:31:07.898Z,20.40
2018-07-28T05:33:35.575Z,21.00
2018-07-28T05:36:03.498Z,19.20
2018-07-28T05:38:31.169Z,17.40
2018-07-28T05:40:58.839Z,17.80
2018-07-28T05:43:26.791Z,20.40
2018-07-28T05:45:55.415Z,20.00
2018-07-28T05:48:23.116Z,21.40
2018-07-28T05:50:50.783Z,19.40
2018-07-28T05:53:18.859Z,24.20
2018-07-28T05:55:46.556Z,22.00
2018-07-28T05:58:14.219Z,21.60
2018-07-28T06:00:41.899Z,19.60
2018-07-28T06:03:09.572Z,17.60
2018-07-28T06:05:38.510Z,21.40
2018-07-28T06:08:06.146Z,19.20
2018-07-28T06:10:33.819Z,20.40
2018-07-28T06:13:03.394Z,22.20
2018-07-28T06:15:31.078Z,19.60
2018-07-28T06:18:00.052Z,20.00
2018-07-28T06:20:28.044Z,24.40
2018-07-28T06:22:55.711Z,21.80
2018-07-28T06:25:23.392Z,20.80
2018-07-28T06:27:51.428Z,19.20
2018-07-28T06:30:19.136Z,19.20
2018-07-28T06:32:46.832Z,20.20
2018-07-28T06:35:14.819Z,18.40
2018-07-28T06:37:42.475Z,25.60
2018-07-28T06:40:10.143Z,19.40
2018-07-28T06:42:38.232Z,22.60
2018-07-28T06:45:05.902Z,21.60
2018-07-28T06:47:33.556Z,22.40
2018-07-28T06:52:33.722Z,22.80
2018-07-28T06:55:01.369Z,20.60
2018-07-28T06:57:29.335Z,23.00
2018-07-28T06:59:57.053Z,24.00
2018-07-28T07:02:24.716Z,18.80
2018-07-28T07:04:53.347Z,19.20
2018-07-28T07:07:21.791Z,16.80
2018-07-28T07:09:50.432Z,21.40
2018-07-28T07:12:18.411Z,21.80
2018-07-28T07:14:46.256Z,21.40
2018-07-28T07:17:13.910Z,22.60
2018-07-28T07:19:41.815Z,18.40
2018-07-28T07:22:10.374Z,17.00
2018-07-28T07:24:38.076Z,17.00
2018-07-28T07:27:06.018Z,21.00
2018-07-28T07:29:33.779Z,13.00
2018-07-28T07:32:01.467Z,18.40
2018-07-28T07:34:31.377Z,23.20
2018-07-28T07:36:59.742Z,16.60
2018-07-28T07:39:27.427Z,18.00
2018-07-28T07:41:55.378Z,22.20
2018-07-28T07:44:23.054Z,20.60
2018-07-28T07:46:50.752Z,18.40
2018-07-28T07:49:18.707Z,20.80
2018-07-28T07:51:46.391Z,18.60
2018-07-28T07:54:15.028Z,21.00
2018-07-28T07:56:43.757Z,19.40
2018-07-28T07:59:11.407Z,17.80
2018-07-28T08:01:39.618Z,18.40
2018-07-28T08:04:07.551Z,20.00
2018-07-28T08:06:35.374Z,19.60
2018-07-28T08:09:04.031Z,20.80
2018-07-28T08:11:34.447Z,21.60
2018-07-28T08:14:02.167Z,20.60
2018-07-28T08:16:29.935Z,21.00
2018-07-28T08:18:57.918Z,18.60
2018-07-28T08:21:25.558Z,19.20
2018-07-28T08:23:54.068Z,17.40
2018-07-28T08:26:22.003Z,18.60
2018-07-28T08:28:50.606Z,17.40
2018-07-28T08:31:18.304Z,17.20
2018-07-28T08:33:46.272Z,17.80
2018-07-28T08:36:13.977Z,19.40
2018-07-28T08:38:41.677Z,22.40
2018-07-28T08:41:09.727Z,23.80
2018-07-28T08:43:37.894Z,15.80
2018-07-28T08:46:05.542Z,24.60
2018-07-28T08:48:33.535Z,16.00
2018-07-28T08:51:01.220Z,19.80
2018-07-28T08:53:29.943Z,21.20
2018-07-28T08:55:57.941Z,26.20
2018-07-28T08:58:26.043Z,17.00
2018-07-28T09:00:54.367Z,23.20
2018-07-28T09:03:23.593Z,26.40
2018-07-28T09:05:51.267Z,24.00
2018-07-28T09:08:20.726Z,25.40
2018-07-28T09:10:49.423Z,22.60
2018-07-28T09:13:17.920Z,21.20
2018-07-28T09:15:45.583Z,21.60
2018-07-28T09:18:13.656Z,27.80
2018-07-28T09:20:42.350Z,29.40
2018-07-28T09:23:10.036Z,30.20
2018-07-28T09:25:38.024Z,29.80
2018-07-28T09:28:05.697Z,33.60
2018-07-28T09:30:33.372Z,26.00
2018-07-28T09:33:02.171Z,26.40
2018-07-28T09:35:30.669Z,30.00
2018-07-28T09:37:58.343Z,27.60
2018-07-28T09:40:26.283Z,31.40
2018-07-28T09:42:53.960Z,30.80
2018-07-28T09:45:21.662Z,30.20
2018-07-28T09:47:49.615Z,30.40
2018-07-28T09:50:17.306Z,30.00
2018-07-28T09:52:46.701Z,30.80
2018-07-28T09:55:14.615Z,27.20
2018-07-28T09:57:42.282Z,28.40
2018-07-28T10:00:10.837Z,30.60
2018-07-28T10:02:39.662Z,32.20
2018-07-28T10:05:08.967Z,32.00
2018-07-28T10:07:36.667Z,32.60
2018-07-28T10:10:04.771Z,36.20
2018-07-28T10:12:32.483Z,33.40
2018-07-28T10:15:00.179Z,26.20
2018-07-28T10:17:28.219Z,35.80
2018-07-28T10:19:55.962Z,38.20
2018-07-28T10:22:23.654Z,31.80
2018-07-28T10:24:51.817Z,26.20
2018-07-28T10:27:20.160Z,34.60
2018-07-28T10:29:47.826Z,30.00
2018-07-28T10:32:16.237Z,28.00
2018-07-28T10:34:43.942Z,26.80
2018-07-28T10:37:13.343Z,20.40
2018-07-28T10:39:42.767Z,28.80
2018-07-28T10:42:10.425Z,31.40
2018-07-28T10:44:40.387Z,30.20
2018-07-28T10:47:09.919Z,30.00
2018-07-28T10:49:37.639Z,22.40
2018-07-28T10:52:05.762Z,27.60
2018-07-28T10:54:34.659Z,37.20
2018-07-28T10:57:02.571Z,29.60
2018-07-28T10:59:30.623Z,27.00
2018-07-28T11:01:58.341Z,31.00
2018-07-28T11:04:26.851Z,28.60
2018-07-28T11:06:56.554Z,29.00
2018-07-28T11:09:24.241Z,30.60
2018-07-28T11:12:09.642Z,28.00
2018-07-28T11:14:37.829Z,25.00
2018-07-28T11:17:05.528Z,32.60
2018-07-28T11:19:34.155Z,28.60
2018-07-28T11:22:02.988Z,28.20
2018-07-28T11:24:30.689Z,27.60
2018-07-28T11:27:01.063Z,26.40
2018-07-28T11:29:30.669Z,25.00
2018-07-28T11:31:58.394Z,24.00
2018-07-28T11:34:26.075Z,24.80
2018-07-28T11:36:55.587Z,21.00
2018-07-28T11:39:23.250Z,25.00
2018-07-28T11:41:52.515Z,25.20
2018-07-28T11:44:20.607Z,21.40
2018-07-28T11:46:48.263Z,20.60
2018-07-28T11:49:17.102Z,17.40
2018-07-28T11:51:46.018Z,27.40
2018-07-28T11:54:16.478Z,22.60
2018-07-28T11:56:44.137Z,23.80
2018-07-28T11:59:12.473Z,19.40
2018-07-28T12:01:40.279Z,24.80
2018-07-28T12:04:08.623Z,19.40
2018-07-28T12:06:36.747Z,22.00
2018-07-28T12:09:04.438Z,20.40
2018-07-28T12:11:32.375Z,19.80
2018-07-28T12:14:01.193Z,19.40
2018-07-28T12:16:28.887Z,18.60
2018-07-28T12:18:56.571Z,16.60
2018-07-28T12:21:24.524Z,17.80
2018-07-28T12:23:52.946Z,18.80
2018-07-28T12:26:20.657Z,18.40
2018-07-28T12:28:50.400Z,17.00
2018-07-28T12:31:18.141Z,14.60
2018-07-28T12:33:45.898Z,13.60
2018-07-28T12:36:15.670Z,15.60
2018-07-28T12:38:44.487Z,17.60
2018-07-28T12:41:13.151Z,17.60
2018-07-28T12:43:41.279Z,16.40
2018-07-28T12:46:08.946Z,17.60
2018-07-28T12:48:36.578Z,15.60
2018-07-28T12:51:04.688Z,16.80
2018-07-28T12:53:32.372Z,16.80
2018-07-28T12:56:00.119Z,13.80
2018-07-28T12:58:28.230Z,18.80
2018-07-28T13:00:55.883Z,14.60
2018-07-28T13:03:23.854Z,14.80
2018-07-28T13:05:51.958Z,15.80
2018-07-28T13:08:19.598Z,11.20
2018-07-28T13:10:47.293Z,17.20
2018-07-28T13:13:16.107Z,13.80
2018-07-28T13:15:43.741Z,17.00
2018-07-28T13:18:12.552Z,15.80
2018-07-28T13:20:41.225Z,13.20
2018-07-28T13:23:10.746Z,16.40
2018-07-28T13:25:38.649Z,12.80
2018-07-28T13:28:06.774Z,18.00
2018-07-28T13:30:34.408Z,17.40
2018-07-28T13:33:03.003Z,17.40
2018-07-28T13:35:31.779Z,15.40
2018-07-28T13:38:01.240Z,17.40
2018-07-28T13:40:28.980Z,19.20
2018-07-28T13:42:59.637Z,20.40
2018-07-28T13:45:28.674Z,19.00
2018-07-28T13:47:56.330Z,18.40
2018-07-28T13:50:25.227Z,12.40
2018-07-28T13:52:57.368Z,18.40
2018-07-28T13:55:25.367Z,19.80
2018-07-28T13:57:53.485Z,21.00
2018-07-28T14:00:21.377Z,23.20
2018-07-28T14:02:50.634Z,20.80
2018-07-28T14:05:18.695Z,21.40
2018-07-28T14:07:46.586Z,22.60
2018-07-28T14:10:14.331Z,21.20
2018-07-28T14:12:44.472Z,25.60
2018-07-28T14:15:13.395Z,23.80
2018-07-28T14:17:41.084Z,15.40
2018-07-28T14:20:10.039Z,24.40
2018-07-28T14:22:38.592Z,20.00
2018-07-28T14:25:07.163Z,19.20
2018-07-28T14:27:35.463Z,28.60
2018-07-28T14:30:04.684Z,20.40
2018-07-28T14:32:33.350Z,22.00
2018-07-28T14:35:02.242Z,23.60
2018-07-28T14:37:29.922Z,18.60
2018-07-28T14:39:57.557Z,20.60
2018-07-28T14:42:25.719Z,21.20
2018-07-28T14:44:53.379Z,18.60
2018-07-28T14:47:22.360Z,22.20
2018-07-28T14:49:50.343Z,20.00
2018-07-28T14:52:18.103Z,20.00
2018-07-28T14:54:45.823Z,23.80
2018-07-28T14:57:13.938Z,20.00
2018-07-28T14:59:41.598Z,23.60
2018-07-28T15:02:10.135Z,22.00
2018-07-28T15:04:40.567Z,19.60
2018-07-28T15:07:08.347Z,29.60
2018-07-28T15:09:36.067Z,20.60
2018-07-28T15:12:04.260Z,25.20
2018-07-28T15:14:31.941Z,24.00
2018-07-28T15:16:59.594Z,24.80
2018-07-28T15:19:27.588Z,21.60
2018-07-28T15:21:55.228Z,23.80
2018-07-28T15:24:23.218Z,25.20
2018-07-28T15:26:51.227Z,28.00
2018-07-28T15:29:21.088Z,26.40
2018-07-28T15:31:48.758Z,24.40
2018-07-28T15:34:16.867Z,31.60
2018-07-28T15:36:45.407Z,30.00
2018-07-28T15:39:14.461Z,24.60
2018-07-28T15:41:43.014Z,27.40
2018-07-28T15:44:10.668Z,25.20
2018-07-28T15:46:38.352Z,26.60
2018-07-28T15:49:06.790Z,23.80
2018-07-28T15:51:35.314Z,19.60
2018-07-28T15:54:06.179Z,21.40
2018-07-28T15:56:34.263Z,20.20
2018-07-28T15:59:02.566Z,19.60
2018-07-28T16:01:30.317Z,16.00
2018-07-28T16:03:57.989Z,19.80
2018-07-28T16:06:26.330Z,18.80
2018-07-28T16:08:54.359Z,22.20
2018-07-28T16:11:22.671Z,20.60
2018-07-28T16:13:50.337Z,21.00
2018-07-28T16:16:20.018Z,18.60
2018-07-28T16:18:48.535Z,20.40
2018-07-28T16:21:19.483Z,22.40
2018-07-28T16:23:47.461Z,19.80
2018-07-28T16:26:15.176Z,19.00
2018-07-28T16:28:42.871Z,20.80
2018-07-28T16:31:11.486Z,25.20
2018-07-28T16:33:39.309Z,22.20
2018-07-28T16:36:06.979Z,24.40
2018-07-28T16:38:35.137Z,21.00
2018-07-28T16:41:02.783Z,24.60
2018-07-28T16:43:30.453Z,26.60
2018-07-28T16:45:58.502Z,19.80
2018-07-28T16:48:26.631Z,16.40
2018-07-28T16:50:55.328Z,16.80
2018-07-28T16:53:23.333Z,14.60
2018-07-28T16:55:54.922Z,16.60
2018-07-28T16:58:22.571Z,11.60
2018-07-28T17:00:50.533Z,17.20
2018-07-28T17:03:19.110Z,23.40
2018-07-28T17:05:46.812Z,25.40
2018-07-28T17:08:16.198Z,23.40
2018-07-28T17:10:45.410Z,30.60
2018-07-28T17:13:13.107Z,25.00
2018-07-28T17:15:42.283Z,25.60
2018-07-28T17:18:09.950Z,28.00
2018-07-28T17:20:39.556Z,27.20
2018-07-28T17:23:07.479Z,29.40
2018-07-28T17:25:36.717Z,24.40
2018-07-28T17:28:05.002Z,29.80
2018-07-28T17:30:36.207Z,31.00
2018-07-28T17:33:08.948Z,30.80
2018-07-28T17:35:40.168Z,37.00
2018-07-28T17:38:08.347Z,32.60
2018-07-28T17:40:36.548Z,35.00
2018-07-28T17:43:05.629Z,29.60
2018-07-28T17:45:38.099Z,37.00
2018-07-28T17:48:07.410Z,30.80
2018-07-28T17:50:35.768Z,32.40
2018-07-28T17:53:05.527Z,37.80
2018-07-28T17:55:33.229Z,39.00
2018-07-28T17:58:01.713Z,33.20
2018-07-28T18:00:30.191Z,29.60
2018-07-28T18:02:57.871Z,35.20
2018-07-28T18:05:26.156Z,27.60
2018-07-28T18:07:55.185Z,34.20
2018-07-28T18:10:24.501Z,34.60
2018-07-28T18:12:52.165Z,31.00
2018-07-28T18:15:20.107Z,36.20
2018-07-28T18:17:47.786Z,31.60
2018-07-28T18:20:16.059Z,33.80
2018-07-28T18:22:44.007Z,32.80
2018-07-28T18:25:11.713Z,33.20
2018-07-28T18:27:39.420Z,31.40
2018-07-28T18:30:07.689Z,28.00
2018-07-28T18:32:35.331Z,32.60
2018-07-28T18:35:04.351Z,33.20
2018-07-28T18:37:33.132Z,31.80
2018-07-28T18:40:00.766Z,31.20
2018-07-28T18:42:29.279Z,34.60
2018-07-28T18:44:57.252Z,31.40
2018-07-28T18:47:25.207Z,33.20
2018-07-28T18:49:52.898Z,31.40
2018-07-28T18:52:22.671Z,38.60
2018-07-28T18:54:50.510Z,35.80
2018-07-28T18:57:18.172Z,43.00
2018-07-28T18:59:49.218Z,30.80
2018-07-28T19:02:18.067Z,39.40
2018-07-28T19:04:46.772Z,36.00
2018-07-28T19:07:16.438Z,36.40
2018-07-28T19:09:51.542Z,31.40
2018-07-28T19:12:23.532Z,38.20
2018-07-28T19:14:51.346Z,40.40
2018-07-28T19:17:20.691Z,33.20
2018-07-28T19:19:48.659Z,39.40
2018-07-28T19:22:21.246Z,42.00
2018-07-28T19:24:48.967Z,39.00
2018-07-28T19:27:17.487Z,35.20
2018-07-28T19:29:46.967Z,39.60
2018-07-28T19:32:14.652Z,38.40
2018-07-28T19:34:42.360Z,34.00
2018-07-28T19:37:15.668Z,43.40
2018-07-28T19:39:44.471Z,41.60
2018-07-28T19:42:17.716Z,39.80
2018-07-28T19:44:47.359Z,44.00
2018-07-28T19:47:16.320Z,36.60
2018-07-28T19:49:44.671Z,37.60
2018-07-28T19:52:15.390Z,39.00
2018-07-28T19:54:46.626Z,43.20
2018-07-28T19:57:14.568Z,42.80
2018-07-28T19:59:42.261Z,41.40
2018-07-28T20:02:10.239Z,38.80
2018-07-28T20:04:37.937Z,48.00
2018-07-28T20:07:07.965Z,39.80
2018-07-28T20:09:36.771Z,40.80
2018-07-28T20:12:04.459Z,36.00
2018-07-28T20:14:32.836Z,39.20
2018-07-28T20:17:00.810Z,41.20
2018-07-28T20:19:29.426Z,38.20
2018-07-28T20:22:05.498Z,40.80
2018-07-28T20:24:34.299Z,42.60
2018-07-28T20:27:03.399Z,35.40
2018-07-28T20:29:31.633Z,37.40
2018-07-28T20:32:00.109Z,36.80
2018-07-28T20:34:28.741Z,42.40
2018-07-28T20:36:56.444Z,43.80
2018-07-28T20:39:24.474Z,38.40
2018-07-28T20:41:52.318Z,48.20
2018-07-28T20:44:21.965Z,40.80
2018-07-28T20:46:49.949Z,45.20
2018-07-28T20:49:18.858Z,36.80
2018-07-28T20:51:50.467Z,44.40
2018-07-28T20:54:18.465Z,44.60
2018-07-28T20:56:46.993Z,44.80
2018-07-28T20:59:20.453Z,39.20
2018-07-28T21:01:54.471Z,40.00
2018-07-28T21:04:23.456Z,37.80
2018-07-28T21:06:52.459Z,41.40
2018-07-28T21:09:21.251Z,43.60
2018-07-28T21:11:49.645Z,47.00
2018-07-28T21:14:17.321Z,42.40
2018-07-28T21:16:45.263Z,47.20
2018-07-28T21:19:12.955Z,46.60
2018-07-28T21:21:42.350Z,39.40
2018-07-28T21:24:14.300Z,42.60
2018-07-28T21:26:43.269Z,43.60
2018-07-28T21:29:11.970Z,39.80
2018-07-28T21:31:39.935Z,33.40
2018-07-28T21:34:07.599Z,41.80
2018-07-28T21:36:35.555Z,34.00
2018-07-28T21:39:03.651Z,44.40
2018-07-28T21:41:31.332Z,40.80
2018-07-28T21:43:58.993Z,50.20
2018-07-28T21:46:27.643Z,41.40
2018-07-28T21:48:55.312Z,44.80
2018-07-28T21:51:23.819Z,44.40
2018-07-28T21:53:51.749Z,49.80
2018-07-28T21:56:23.755Z,36.60
2018-07-28T21:58:51.415Z,41.00
2018-07-28T22:01:19.507Z,42.60
2018-07-28T22:03:49.601Z,47.80
2018-07-28T22:06:17.230Z,46.00
2018-07-28T22:08:45.881Z,50.00
2018-07-28T22:11:14.343Z,44.20
2018-07-28T22:13:42.560Z,44.80
2018-07-28T22:16:10.606Z,44.60
2018-07-28T22:18:39.350Z,46.60
2018-07-28T22:21:07.003Z,45.00
2018-07-28T22:23:35.786Z,40.60
2018-07-28T22:26:05.631Z,39.20
2018-07-28T22:28:33.926Z,41.40
2018-07-28T22:31:02.459Z,45.80
2018-07-28T22:33:30.144Z,44.60
2018-07-28T22:35:58.780Z,43.20
2018-07-28T22:38:26.742Z,38.60
2018-07-28T22:40:56.630Z,37.00
2018-07-28T22:43:25.264Z,41.20
2018-07-28T22:45:54.651Z,45.40
2018-07-28T22:48:23.187Z,38.60
2018-07-28T22:50:51.656Z,44.00
2018-07-28T22:53:19.672Z,41.60
2018-07-28T22:55:47.403Z,46.20
2018-07-28T22:58:15.077Z,50.40
2018-07-28T23:00:43.271Z,51.00
2018-07-28T23:03:10.971Z,37.80
2018-07-28T23:05:38.666Z,47.40
2018-07-28T23:08:06.317Z,44.20
2018-07-28T23:10:34.288Z,47.20
2018-07-28T23:13:02.758Z,49.80
2018-07-28T23:15:30.457Z,43.80
2018-07-28T23:17:58.394Z,44.40
2018-07-28T23:20:26.065Z,43.80
2018-07-28T23:22:53.714Z,42.40
2018-07-28T23:25:25.493Z,45.60
2018-07-28T23:27:54.371Z,36.20
2018-07-28T23:30:22.546Z,44.40
2018-07-28T23:32:51.296Z,37.60
2018-07-28T23:35:18.971Z,45.60
2018-07-28T23:37:46.609Z,33.00
2018-07-28T23:40:14.582Z,44.00
2018-07-28T23:42:42.267Z,35.40
2018-07-28T23:45:11.017Z,41.40
2018-07-28T23:47:38.680Z,38.60
2018-07-28T23:52:37.206Z,42.60
2018-07-28T23:55:04.871Z,37.60
2018-07-28T23:57:32.942Z,44.80
